Terminal Aerodrome Forecast
Issued by NWS

Current Version | Previous Version | Text Only | Print | Product List | Glossary On
Versions: 1 2 3 4 5 6 7 8 9 10 11 12 13 14 15 16 17 18
000
FTUS43 KAPX 162327
TAFPLN
TAF
KPLN 162327Z 1700/1724 22004KT P6SM FEW040 BKN120
     FM170500 22008KT P6SM SCT120 WS015/24040KT
     FM171300 24010G17KT P6SM FEW250
     FM172200 24006KT P6SM FEW250=

USA.gov is the U.S. government's official web portal to all federal, state and local government web resources and services.